Wilberforce, OH

12:35 PM EST on December 18, 2014 (GMT -0500)
Xenia Township | Change Station
CLOSE
Current Station
Personal Weather Station
Location: Xenia, OH
Elevation: 1033 ft
Nearby Weather Stations

Elev 1033 ft 39.71 °N, 83.85 °W | Updated 6 minutes ago

Overcast
Overcast
26.9 °F
Feels Like 27 °F
N
0.0
Wind Variable Wind from ESE
Gusts 3.0 mph

Today
High -- | Low -- °F
--% Chance of Precip.
Yesterday
High -- | Low -- °F
Precip. -- in
7:51 AM 5:13 PM
Waning Crescent, 13% visible
Pressure 30.29 in
Visibility 7.0 miles
Clouds Overcast 1600 ft
Windchill 27 °F
Dew Point 22 °F
Humidity 82%
Rainfall 0.00 in
Snow Depth Not available.
UV 1 out of 12
Pollen .10 out of 12
Air Quality Not available.
Flu Activity Not available.
METAR KSGH 181656Z AUTO 22005KT 7SM OVC016 M03/M06 A3024 RMK AO2 T10271061 SNB37E41 P0000 SLP255

More Conditions Fewer Conditions

Pressure 30.29 in
Visibility 7.0 miles
Clouds Overcast 1600 ft
Windchill 27 °F
Dew Point 22 °F
Humidity 82%
Rainfall 0.00 in
Snow Depth Not available.
UV 1 out of 12
Pollen .10 out of 12
Air Quality Not available.
Flu Activity Not available.
METAR KSGH 181656Z AUTO 22005KT 7SM OVC016 M03/M06 A3024 RMK AO2 T10271061 SNB37E41 P0000 SLP255

More Conditions Fewer Conditions

10-Day Weather Forecast

Almanac

Astronomy

Dec. 18, 2014 Rise Set
Actual Time
Civil Twilight
Nautical Twilight
Astronomical Twilight
Moon
Length of Visible Light
Length of Day
Tomorrow will be .
, % of the Moon is Illuminated

Today's Extremes

State Highs State Lows

Community

WunderPhotos

Upload Photos

1,778,967 photos uploaded!

WunderBlogs® & News

Nearby

Air Quality

  Air Quality AQ Index Pollutant
Not available.

Snow Depth

Station Depth Elevation

Earthquake Activity

City Distance Mag. Time & Date
Minimum magnitude displayed is 2.5.

Coastal Water Temperatures

Place Temperature

Nearby Weather Stations